Terminal Aerodrome Forecast
Issued by NWS

Home | Current Version | Previous Version | Text Only | Print | Product List | Glossary On
Versions: 1 2 3 4 5 6 7 8 9 10 11 12 13 14 15
000
FTUS41 KCAR 240534
TAFPQI
TAF
KPQI 240534Z 2406/2506 14005KT P6SM OVC040
     FM240900 15005KT P6SM SCT015 OVC025
     FM241400 13008KT 6SM -RA BR SCT008 OVC015
     FM242200 14011KT 4SM -DZ BR OVC007
      AMD LTD TO CLD VIS AND WIND=

USA.gov is the U.S. government's official web portal to all federal, state and local government web resources and services.